sensor_id;sensor_type;location;lat;lon;timestamp;pressure;altitude;pressure_sealevel;temperature;humidity
50302;BME280;36550;50.472;19.744;2023-01-29T00:00:36;98915.11;;;-1.69;82.19
50302;BME280;36550;50.472;19.744;2023-01-29T00:03:20;98922.73;;;-1.70;81.90
50302;BME280;36550;50.472;19.744;2023-01-29T00:06:05;98918.32;;;-1.73;81.87
50302;BME280;36550;50.472;19.744;2023-01-29T00:08:49;98918.02;;;-1.75;82.08
50302;BME280;36550;50.472;19.744;2023-01-29T00:11:34;98911.14;;;-1.75;82.10
50302;BME280;36550;50.472;19.744;2023-01-29T00:14:18;98915.84;;;-1.66;82.27
50302;BME280;36550;50.472;19.744;2023-01-29T00:17:02;98914.98;;;-1.58;82.03
50302;BME280;36550;50.472;19.744;2023-01-29T00:19:46;98918.73;;;-1.56;81.69
50302;BME280;36550;50.472;19.744;2023-01-29T00:22:30;98924.99;;;-1.61;80.86
50302;BME280;36550;50.472;19.744;2023-01-29T00:25:14;98920.09;;;-1.67;80.73
50302;BME280;36550;50.472;19.744;2023-01-29T00:27:58;98919.24;;;-1.71;80.98
50302;BME280;36550;50.472;19.744;2023-01-29T00:30:42;98922.77;;;-1.70;80.86
50302;BME280;36550;50.472;19.744;2023-01-29T00:33:27;98922.99;;;-1.67;80.83
50302;BME280;36550;50.472;19.744;2023-01-29T00:36:14;98927.55;;;-1.64;80.57
50302;BME280;36550;50.472;19.744;2023-01-29T00:38:58;98929.05;;;-1.64;80.57
50302;BME280;36550;50.472;19.744;2023-01-29T00:41:44;98931.02;;;-1.65;80.13
50302;BME280;36550;50.472;19.744;2023-01-29T00:44:47;98940.90;;;-1.64;80.31
50302;BME280;36550;50.472;19.744;2023-01-29T00:47:40;98947.97;;;-1.66;79.87
50302;BME280;36550;50.472;19.744;2023-01-29T00:50:24;98942.67;;;-1.72;79.42
50302;BME280;36550;50.472;19.744;2023-01-29T00:53:08;98931.52;;;-1.77;79.49
50302;BME280;36550;50.472;19.744;2023-01-29T00:55:52;98936.06;;;-1.82;79.45
50302;BME280;36550;50.472;19.744;2023-01-29T00:58:36;98938.31;;;-1.86;79.59
50302;BME280;36550;50.472;19.744;2023-01-29T01:01:21;98946.23;;;-1.90;79.66
50302;BME280;36550;50.472;19.744;2023-01-29T01:04:25;98946.44;;;-1.93;79.78
50302;BME280;36550;50.472;19.744;2023-01-29T01:07:09;98943.66;;;-1.98;79.91
50302;BME280;36550;50.472;19.744;2023-01-29T01:09:52;98942.20;;;-2.03;79.99
50302;BME280;36550;50.472;19.744;2023-01-29T01:15:41;98935.00;;;-2.07;80.23
50302;BME280;36550;50.472;19.744;2023-01-29T01:18:28;98939.45;;;-2.11;79.83
50302;BME280;36550;50.472;19.744;2023-01-29T01:21:13;98938.60;;;-2.15;79.71
50302;BME280;36550;50.472;19.744;2023-01-29T01:23:56;98929.35;;;-2.16;79.67
50302;BME280;36550;50.472;19.744;2023-01-29T01:26:40;98926.96;;;-2.14;79.74
50302;BME280;36550;50.472;19.744;2023-01-29T01:29:25;98927.20;;;-2.15;79.28
50302;BME280;36550;50.472;19.744;2023-01-29T01:32:09;98925.27;;;-2.18;78.77
50302;BME280;36550;50.472;19.744;2023-01-29T01:34:52;98924.95;;;-2.16;79.15
50302;BME280;36550;50.472;19.744;2023-01-29T01:37:36;98920.45;;;-2.12;78.95
50302;BME280;36550;50.472;19.744;2023-01-29T01:40:23;98914.96;;;-2.05;79.04
50302;BME280;36550;50.472;19.744;2023-01-29T01:43:08;98905.79;;;-2.07;78.54
50302;BME280;36550;50.472;19.744;2023-01-29T01:45:53;98908.59;;;-2.03;78.91
50302;BME280;36550;50.472;19.744;2023-01-29T01:48:37;98906.81;;;-2.01;78.87
50302;BME280;36550;50.472;19.744;2023-01-29T01:51:23;98902.09;;;-2.00;78.50
50302;BME280;36550;50.472;19.744;2023-01-29T01:54:11;98896.59;;;-1.93;78.66
50302;BME280;36550;50.472;19.744;2023-01-29T01:57:03;98885.02;;;-1.87;78.65
50302;BME280;36550;50.472;19.744;2023-01-29T01:59:59;98879.39;;;-1.79;78.60
50302;BME280;36550;50.472;19.744;2023-01-29T02:02:53;98880.15;;;-1.78;78.23
50302;BME280;36550;50.472;19.744;2023-01-29T02:05:58;98886.44;;;-1.81;77.77
50302;BME280;36550;50.472;19.744;2023-01-29T02:09:10;98887.64;;;-1.83;77.98
50302;BME280;36550;50.472;19.744;2023-01-29T02:12:36;98886.39;;;-1.86;78.19
50302;BME280;36550;50.472;19.744;2023-01-29T02:15:20;98886.80;;;-1.83;78.35
50302;BME280;36550;50.472;19.744;2023-01-29T02:18:04;98884.14;;;-1.78;78.36
50302;BME280;36550;50.472;19.744;2023-01-29T02:21:12;98884.21;;;-1.75;77.96
50302;BME280;36550;50.472;19.744;2023-01-29T02:30:04;98881.68;;;-1.62;78.68
50302;BME280;36550;50.472;19.744;2023-01-29T02:35:59;98881.35;;;-1.66;77.41
50302;BME280;36550;50.472;19.744;2023-01-29T02:38:48;98876.17;;;-1.69;76.80
50302;BME280;36550;50.472;19.744;2023-01-29T02:41:53;98888.90;;;-1.72;76.33
50302;BME280;36550;50.472;19.744;2023-01-29T02:44:45;98888.00;;;-1.81;75.77
50302;BME280;36550;50.472;19.744;2023-01-29T02:47:44;98889.63;;;-1.94;74.91
50302;BME280;36550;50.472;19.744;2023-01-29T02:50:36;98884.35;;;-2.03;75.43
50302;BME280;36550;50.472;19.744;2023-01-29T02:53:31;98887.95;;;-2.04;75.72
50302;BME280;36550;50.472;19.744;2023-01-29T02:56:20;98894.70;;;-2.01;76.03
50302;BME280;36550;50.472;19.744;2023-01-29T02:59:14;98899.27;;;-2.01;76.01
50302;BME280;36550;50.472;19.744;2023-01-29T03:02:05;98899.33;;;-2.05;75.42
50302;BME280;36550;50.472;19.744;2023-01-29T03:04:56;98904.00;;;-2.08;75.69
50302;BME280;36550;50.472;19.744;2023-01-29T03:07:48;98906.70;;;-2.13;75.36
50302;BME280;36550;50.472;19.744;2023-01-29T03:10:50;98901.98;;;-2.14;75.69
50302;BME280;36550;50.472;19.744;2023-01-29T03:16:39;98906.86;;;-2.13;75.42
50302;BME280;36550;50.472;19.744;2023-01-29T03:22:16;98908.98;;;-2.22;75.10
50302;BME280;36550;50.472;19.744;2023-01-29T03:25:03;98907.84;;;-2.27;75.23
50302;BME280;36550;50.472;19.744;2023-01-29T03:28:08;98926.96;;;-2.28;75.72
50302;BME280;36550;50.472;19.744;2023-01-29T03:31:13;98933.77;;;-2.23;76.06
50302;BME280;36550;50.472;19.744;2023-01-29T03:34:26;98922.23;;;-2.19;75.91
50302;BME280;36550;50.472;19.744;2023-01-29T03:37:23;98918.64;;;-2.19;75.78
50302;BME280;36550;50.472;19.744;2023-01-29T03:40:09;98909.98;;;-2.18;75.81
50302;BME280;36550;50.472;19.744;2023-01-29T03:43:10;98902.80;;;-2.20;75.32
50302;BME280;36550;50.472;19.744;2023-01-29T03:46:02;98905.92;;;-2.20;75.55
50302;BME280;36550;50.472;19.744;2023-01-29T03:54:39;98882.30;;;-2.06;75.84
50302;BME280;36550;50.472;19.744;2023-01-29T03:57:44;98880.30;;;-2.03;75.42
50302;BME280;36550;50.472;19.744;2023-01-29T04:00:41;98875.58;;;-2.06;74.95
50302;BME280;36550;50.472;19.744;2023-01-29T04:03:33;98878.77;;;-2.14;74.11
50302;BME280;36550;50.472;19.744;2023-01-29T04:06:23;98880.95;;;-2.21;74.24
50302;BME280;36550;50.472;19.744;2023-01-29T04:09:17;98886.23;;;-2.31;74.09
50302;BME280;36550;50.472;19.744;2023-01-29T04:12:08;98887.40;;;-2.36;74.25
50302;BME280;36550;50.472;19.744;2023-01-29T04:14:52;98884.13;;;-2.36;74.63
50302;BME280;36550;50.472;19.744;2023-01-29T04:17:39;98881.02;;;-2.38;74.55
50302;BME280;36550;50.472;19.744;2023-01-29T04:20:24;98873.09;;;-2.43;74.34
50302;BME280;36550;50.472;19.744;2023-01-29T04:23:20;98857.40;;;-2.46;74.58
50302;BME280;36550;50.472;19.744;2023-01-29T04:29:20;98843.73;;;-2.43;75.17
50302;BME280;36550;50.472;19.744;2023-01-29T04:35:28;98837.85;;;-2.38;75.10
50302;BME280;36550;50.472;19.744;2023-01-29T04:41:23;98842.61;;;-2.38;74.41
50302;BME280;36550;50.472;19.744;2023-01-29T04:44:17;98838.90;;;-2.38;74.90
50302;BME280;36550;50.472;19.744;2023-01-29T04:47:17;98835.88;;;-2.37;75.10
50302;BME280;36550;50.472;19.744;2023-01-29T04:50:14;98833.92;;;-2.36;75.12
50302;BME280;36550;50.472;19.744;2023-01-29T04:53:11;98831.83;;;-2.36;75.34
50302;BME280;36550;50.472;19.744;2023-01-29T04:56:06;98835.56;;;-2.34;75.64
50302;BME280;36550;50.472;19.744;2023-01-29T04:58:57;98838.26;;;-2.31;75.65
50302;BME280;36550;50.472;19.744;2023-01-29T05:01:43;98836.64;;;-2.28;75.56
50302;BME280;36550;50.472;19.744;2023-01-29T05:04:30;98835.27;;;-2.28;75.64
50302;BME280;36550;50.472;19.744;2023-01-29T05:07:16;98841.42;;;-2.26;75.68
50302;BME280;36550;50.472;19.744;2023-01-29T05:10:07;98847.32;;;-2.30;74.72
50302;BME280;36550;50.472;19.744;2023-01-29T05:12:58;98849.98;;;-2.44;74.37
50302;BME280;36550;50.472;19.744;2023-01-29T05:16:07;98847.00;;;-2.53;74.25
50302;BME280;36550;50.472;19.744;2023-01-29T05:18:52;98849.55;;;-2.65;73.73
50302;BME280;36550;50.472;19.744;2023-01-29T05:21:38;98861.52;;;-2.69;73.66
50302;BME280;36550;50.472;19.744;2023-01-29T05:24:24;98863.73;;;-2.73;73.28
50302;BME280;36550;50.472;19.744;2023-01-29T05:27:16;98871.77;;;-2.79;72.72
50302;BME280;36550;50.472;19.744;2023-01-29T05:30:19;98873.05;;;-2.80;73.45
50302;BME280;36550;50.472;19.744;2023-01-29T05:33:08;98877.73;;;-2.82;72.95
50302;BME280;36550;50.472;19.744;2023-01-29T05:35:55;98876.29;;;-2.85;72.82
50302;BME280;36550;50.472;19.744;2023-01-29T05:38:40;98871.19;;;-2.91;71.92
50302;BME280;36550;50.472;19.744;2023-01-29T05:41:23;98869.70;;;-2.85;73.04
50302;BME280;36550;50.472;19.744;2023-01-29T05:44:09;98869.34;;;-2.83;72.38
50302;BME280;36550;50.472;19.744;2023-01-29T05:46:53;98863.69;;;-2.80;73.16
50302;BME280;36550;50.472;19.744;2023-01-29T05:49:37;98864.86;;;-2.76;73.09
50302;BME280;36550;50.472;19.744;2023-01-29T05:52:21;98864.94;;;-2.73;73.06
50302;BME280;36550;50.472;19.744;2023-01-29T05:55:05;98858.84;;;-2.69;73.63
50302;BME280;36550;50.472;19.744;2023-01-29T05:57:50;98857.09;;;-2.63;74.01
50302;BME280;36550;50.472;19.744;2023-01-29T06:00:33;98855.78;;;-2.58;74.17
50302;BME280;36550;50.472;19.744;2023-01-29T06:03:17;98857.11;;;-2.54;74.25
50302;BME280;36550;50.472;19.744;2023-01-29T06:06:01;98859.85;;;-2.51;73.93
50302;BME280;36550;50.472;19.744;2023-01-29T06:08:45;98855.90;;;-2.48;74.08
50302;BME280;36550;50.472;19.744;2023-01-29T06:11:30;98858.67;;;-2.45;74.30
50302;BME280;36550;50.472;19.744;2023-01-29T06:14:14;98863.16;;;-2.43;74.24
50302;BME280;36550;50.472;19.744;2023-01-29T06:16:57;98862.05;;;-2.41;74.13
50302;BME280;36550;50.472;19.744;2023-01-29T06:19:42;98864.07;;;-2.34;74.19
50302;BME280;36550;50.472;19.744;2023-01-29T06:22:26;98866.54;;;-2.29;74.21
50302;BME280;36550;50.472;19.744;2023-01-29T06:25:10;98866.58;;;-2.23;74.40
50302;BME280;36550;50.472;19.744;2023-01-29T06:27:54;98865.73;;;-2.15;74.50
50302;BME280;36550;50.472;19.744;2023-01-29T06:30:37;98867.51;;;-2.10;74.35
50302;BME280;36550;50.472;19.744;2023-01-29T06:33:21;98860.84;;;-2.08;74.47
50302;BME280;36550;50.472;19.744;2023-01-29T06:36:05;98865.00;;;-2.03;74.66
50302;BME280;36550;50.472;19.744;2023-01-29T06:38:49;98857.38;;;-2.00;74.77
50302;BME280;36550;50.472;19.744;2023-01-29T06:41:33;98855.55;;;-1.97;74.84
50302;BME280;36550;50.472;19.744;2023-01-29T06:44:18;98856.05;;;-1.95;74.83
50302;BME280;36550;50.472;19.744;2023-01-29T06:47:02;98853.57;;;-1.94;74.79
50302;BME280;36550;50.472;19.744;2023-01-29T06:49:46;98855.44;;;-1.93;74.82
50302;BME280;36550;50.472;19.744;2023-01-29T06:52:30;98857.14;;;-1.93;74.77
50302;BME280;36550;50.472;19.744;2023-01-29T06:55:14;98858.00;;;-1.93;74.70
50302;BME280;36550;50.472;19.744;2023-01-29T06:57:57;98857.43;;;-1.93;74.46
50302;BME280;36550;50.472;19.744;2023-01-29T07:00:41;98856.65;;;-1.91;74.68
50302;BME280;36550;50.472;19.744;2023-01-29T07:03:25;98857.84;;;-1.89;74.54
50302;BME280;36550;50.472;19.744;2023-01-29T07:06:09;98862.98;;;-1.87;74.66
50302;BME280;36550;50.472;19.744;2023-01-29T07:08:53;98862.81;;;-1.85;74.66
50302;BME280;36550;50.472;19.744;2023-01-29T07:11:37;98859.91;;;-1.84;74.61
50302;BME280;36550;50.472;19.744;2023-01-29T07:14:21;98860.30;;;-1.82;74.48
50302;BME280;36550;50.472;19.744;2023-01-29T07:17:04;98864.67;;;-1.76;74.35
50302;BME280;36550;50.472;19.744;2023-01-29T07:19:48;98868.73;;;-1.69;74.33
50302;BME280;36550;50.472;19.744;2023-01-29T07:22:32;98867.33;;;-1.60;74.48
50302;BME280;36550;50.472;19.744;2023-01-29T07:25:17;98870.55;;;-1.54;74.32
50302;BME280;36550;50.472;19.744;2023-01-29T07:28:00;98873.69;;;-1.51;74.31
50302;BME280;36550;50.472;19.744;2023-01-29T07:30:44;98873.83;;;-1.48;74.29
50302;BME280;36550;50.472;19.744;2023-01-29T07:33:28;98874.85;;;-1.45;74.32
50302;BME280;36550;50.472;19.744;2023-01-29T07:36:13;98875.98;;;-1.42;74.26
50302;BME280;36550;50.472;19.744;2023-01-29T07:38:57;98882.27;;;-1.43;73.93
50302;BME280;36550;50.472;19.744;2023-01-29T07:41:41;98884.37;;;-1.45;73.74
50302;BME280;36550;50.472;19.744;2023-01-29T07:44:25;98889.35;;;-1.43;73.90
50302;BME280;36550;50.472;19.744;2023-01-29T07:47:08;98888.77;;;-1.41;73.89
50302;BME280;36550;50.472;19.744;2023-01-29T07:49:52;98885.32;;;-1.39;73.78
50302;BME280;36550;50.472;19.744;2023-01-29T07:52:36;98883.39;;;-1.36;73.82
50302;BME280;36550;50.472;19.744;2023-01-29T07:55:20;98890.84;;;-1.31;73.85
50302;BME280;36550;50.472;19.744;2023-01-29T07:58:04;98896.89;;;-1.26;73.96
50302;BME280;36550;50.472;19.744;2023-01-29T08:00:49;98907.94;;;-1.21;73.95
50302;BME280;36550;50.472;19.744;2023-01-29T08:03:33;98913.95;;;-1.13;73.87
50302;BME280;36550;50.472;19.744;2023-01-29T08:06:17;98913.24;;;-1.07;73.76
50302;BME280;36550;50.472;19.744;2023-01-29T08:09:02;98917.76;;;-1.02;73.69
50302;BME280;36550;50.472;19.744;2023-01-29T08:11:46;98921.99;;;-0.97;73.76
50302;BME280;36550;50.472;19.744;2023-01-29T08:14:30;98925.15;;;-0.92;74.00
50302;BME280;36550;50.472;19.744;2023-01-29T08:17:14;98926.23;;;-0.91;73.62
50302;BME280;36550;50.472;19.744;2023-01-29T08:19:58;98917.86;;;-0.93;73.27
50302;BME280;36550;50.472;19.744;2023-01-29T08:22:42;98916.89;;;-0.88;73.56
50302;BME280;36550;50.472;19.744;2023-01-29T08:25:27;98910.25;;;-0.81;73.81
50302;BME280;36550;50.472;19.744;2023-01-29T08:28:11;98903.48;;;-0.71;74.05
50302;BME280;36550;50.472;19.744;2023-01-29T08:30:56;98902.83;;;-0.56;74.26
50302;BME280;36550;50.472;19.744;2023-01-29T08:33:40;98910.46;;;-0.44;74.18
50302;BME280;36550;50.472;19.744;2023-01-29T08:36:24;98913.14;;;-0.36;74.04
50302;BME280;36550;50.472;19.744;2023-01-29T08:39:08;98908.74;;;-0.33;73.87
50302;BME280;36550;50.472;19.744;2023-01-29T08:41:52;98903.68;;;-0.30;73.89
50302;BME280;36550;50.472;19.744;2023-01-29T08:44:36;98909.02;;;-0.32;73.47
50302;BME280;36550;50.472;19.744;2023-01-29T08:47:19;98909.98;;;-0.31;73.64
50302;BME280;36550;50.472;19.744;2023-01-29T08:50:03;98909.18;;;-0.28;73.44
50302;BME280;36550;50.472;19.744;2023-01-29T08:52:47;98902.96;;;-0.26;73.18
50302;BME280;36550;50.472;19.744;2023-01-29T08:55:31;98901.71;;;-0.22;73.32
50302;BME280;36550;50.472;19.744;2023-01-29T08:58:15;98900.88;;;-0.24;72.97
50302;BME280;36550;50.472;19.744;2023-01-29T09:01:13;98902.83;;;-0.21;72.55
50302;BME280;36550;50.472;19.744;2023-01-29T09:03:57;98902.07;;;-0.24;71.22
50302;BME280;36550;50.472;19.744;2023-01-29T09:06:42;98897.98;;;-0.28;71.20
50302;BME280;36550;50.472;19.744;2023-01-29T09:09:26;98896.63;;;-0.30;70.80
50302;BME280;36550;50.472;19.744;2023-01-29T09:12:10;98896.33;;;-0.30;70.91
50302;BME280;36550;50.472;19.744;2023-01-29T09:14:54;98892.77;;;-0.29;70.41
50302;BME280;36550;50.472;19.744;2023-01-29T09:17:37;98884.73;;;-0.29;70.70
50302;BME280;36550;50.472;19.744;2023-01-29T09:20:21;98878.82;;;-0.22;71.62
50302;BME280;36550;50.472;19.744;2023-01-29T09:23:07;98876.63;;;-0.17;71.32
50302;BME280;36550;50.472;19.744;2023-01-29T09:25:51;98876.71;;;-0.17;70.40
50302;BME280;36550;50.472;19.744;2023-01-29T09:28:35;98879.50;;;-0.05;71.05
50302;BME280;36550;50.472;19.744;2023-01-29T09:31:19;98877.02;;;-0.02;69.32
50302;BME280;36550;50.472;19.744;2023-01-29T09:34:03;98873.13;;;0.03;69.72
50302;BME280;36550;50.472;19.744;2023-01-29T09:36:47;98869.89;;;0.11;70.18
50302;BME280;36550;50.472;19.744;2023-01-29T09:39:31;98872.23;;;0.10;68.13
50302;BME280;36550;50.472;19.744;2023-01-29T09:42:34;98875.70;;;0.05;68.09
50302;BME280;36550;50.472;19.744;2023-01-29T09:45:24;98883.77;;;0.03;67.95
50302;BME280;36550;50.472;19.744;2023-01-29T09:48:10;98884.02;;;0.00;67.01
50302;BME280;36550;50.472;19.744;2023-01-29T09:50:57;98877.57;;;-0.01;67.34
50302;BME280;36550;50.472;19.744;2023-01-29T09:53:46;98869.01;;;-0.03;66.75
50302;BME280;36550;50.472;19.744;2023-01-29T09:56:34;98864.67;;;0.08;67.80
50302;BME280;36550;50.472;19.744;2023-01-29T09:59:20;98863.89;;;0.18;67.81
50302;BME280;36550;50.472;19.744;2023-01-29T10:02:09;98865.27;;;0.24;67.37
50302;BME280;36550;50.472;19.744;2023-01-29T10:08:12;98854.72;;;0.24;67.55
50302;BME280;36550;50.472;19.744;2023-01-29T10:20:36;98815.23;;;0.55;68.57
50302;BME280;36550;50.472;19.744;2023-01-29T10:23:29;98813.16;;;0.69;69.04
50302;BME280;36550;50.472;19.744;2023-01-29T10:26:15;98811.27;;;0.80;68.73
50302;BME280;36550;50.472;19.744;2023-01-29T10:29:00;98808.38;;;0.85;67.81
50302;BME280;36550;50.472;19.744;2023-01-29T10:31:49;98800.05;;;0.96;68.07
50302;BME280;36550;50.472;19.744;2023-01-29T10:34:41;98792.47;;;1.03;67.61
50302;BME280;36550;50.472;19.744;2023-01-29T10:37:39;98772.70;;;1.03;66.68
50302;BME280;36550;50.472;19.744;2023-01-29T10:40:36;98759.10;;;1.06;66.61
50302;BME280;36550;50.472;19.744;2023-01-29T10:50:11;98734.66;;;1.17;66.99
50302;BME280;36550;50.472;19.744;2023-01-29T10:53:18;98730.17;;;1.29;66.54
50302;BME280;36550;50.472;19.744;2023-01-29T10:56:18;98723.45;;;1.41;66.41
50302;BME280;36550;50.472;19.744;2023-01-29T11:02:17;98710.03;;;1.69;66.11
50302;BME280;36550;50.472;19.744;2023-01-29T11:05:01;98705.13;;;1.75;64.96
50302;BME280;36550;50.472;19.744;2023-01-29T11:07:47;98698.79;;;1.75;63.06
50302;BME280;36550;50.472;19.744;2023-01-29T11:10:36;98697.52;;;1.82;63.41
50302;BME280;36550;50.472;19.744;2023-01-29T11:13:28;98688.95;;;1.86;62.59
50302;BME280;36550;50.472;19.744;2023-01-29T11:16:14;98683.86;;;2.00;63.55
50302;BME280;36550;50.472;19.744;2023-01-29T11:19:00;98682.09;;;2.07;63.17
50302;BME280;36550;50.472;19.744;2023-01-29T11:21:54;98677.08;;;2.14;63.60
50302;BME280;36550;50.472;19.744;2023-01-29T11:24:39;98672.23;;;2.22;63.32
50302;BME280;36550;50.472;19.744;2023-01-29T11:27:25;98662.34;;;2.21;62.88
50302;BME280;36550;50.472;19.744;2023-01-29T11:30:29;98658.20;;;2.09;62.49
50302;BME280;36550;50.472;19.744;2023-01-29T11:35:56;98663.30;;;1.69;62.19
50302;BME280;36550;50.472;19.744;2023-01-29T11:38:41;98663.19;;;1.57;62.31
50302;BME280;36550;50.472;19.744;2023-01-29T11:41:25;98665.56;;;1.47;62.68
50302;BME280;36550;50.472;19.744;2023-01-29T11:44:20;98669.39;;;1.34;62.69
50302;BME280;36550;50.472;19.744;2023-01-29T11:47:24;98667.83;;;1.27;63.29
50302;BME280;36550;50.472;19.744;2023-01-29T11:50:19;98664.96;;;1.18;62.86
50302;BME280;36550;50.472;19.744;2023-01-29T11:53:05;98668.59;;;1.11;62.67
50302;BME280;36550;50.472;19.744;2023-01-29T11:55:50;98668.84;;;1.07;62.49
50302;BME280;36550;50.472;19.744;2023-01-29T11:58:35;98670.93;;;0.98;61.82
50302;BME280;36550;50.472;19.744;2023-01-29T12:01:29;98673.27;;;0.94;62.10
50302;BME280;36550;50.472;19.744;2023-01-29T12:04:19;98673.17;;;0.93;62.16
50302;BME280;36550;50.472;19.744;2023-01-29T12:07:10;98672.53;;;0.93;62.73
50302;BME280;36550;50.472;19.744;2023-01-29T12:09:57;98669.13;;;0.98;62.58
50302;BME280;36550;50.472;19.744;2023-01-29T12:12:41;98675.86;;;1.01;62.88
50302;BME280;36550;50.472;19.744;2023-01-29T12:15:25;98666.73;;;1.09;63.24
50302;BME280;36550;50.472;19.744;2023-01-29T12:24:22;98660.29;;;1.25;61.80
50302;BME280;36550;50.472;19.744;2023-01-29T12:27:28;98655.25;;;1.24;61.21
50302;BME280;36550;50.472;19.744;2023-01-29T12:30:40;98651.05;;;1.24;61.10
50302;BME280;36550;50.472;19.744;2023-01-29T12:33:50;98643.05;;;1.18;60.39
50302;BME280;36550;50.472;19.744;2023-01-29T12:36:45;98633.90;;;1.13;61.01
50302;BME280;36550;50.472;19.744;2023-01-29T12:39:35;98630.97;;;1.10;61.74
50302;BME280;36550;50.472;19.744;2023-01-29T12:42:23;98629.20;;;1.15;62.57
50302;BME280;36550;50.472;19.744;2023-01-29T12:45:08;98622.41;;;1.22;62.59
50302;BME280;36550;50.472;19.744;2023-01-29T12:48:23;98617.89;;;1.28;62.58
50302;BME280;36550;50.472;19.744;2023-01-29T12:51:14;98617.70;;;1.30;62.55
50302;BME280;36550;50.472;19.744;2023-01-29T12:54:08;98617.94;;;1.31;62.49
50302;BME280;36550;50.472;19.744;2023-01-29T12:56:59;98612.57;;;1.28;61.92
50302;BME280;36550;50.472;19.744;2023-01-29T12:59:50;98613.63;;;1.25;61.20
50302;BME280;36550;50.472;19.744;2023-01-29T13:02:47;98604.09;;;1.20;61.56
50302;BME280;36550;50.472;19.744;2023-01-29T13:06:29;98603.30;;;1.21;62.28
50302;BME280;36550;50.472;19.744;2023-01-29T13:08:50;98598.80;;;1.28;62.29
50302;BME280;36550;50.472;19.744;2023-01-29T13:11:52;98603.30;;;1.26;62.31
50302;BME280;36550;50.472;19.744;2023-01-29T13:14:53;98601.73;;;1.26;62.58
50302;BME280;36550;50.472;19.744;2023-01-29T13:17:42;98597.62;;;1.23;62.26
50302;BME280;36550;50.472;19.744;2023-01-29T13:20:31;98604.69;;;1.21;62.28
50302;BME280;36550;50.472;19.744;2023-01-29T13:23:21;98604.42;;;1.18;61.98
50302;BME280;36550;50.472;19.744;2023-01-29T13:26:05;98613.25;;;1.15;62.49
50302;BME280;36550;50.472;19.744;2023-01-29T13:28:50;98607.86;;;1.07;61.88
50302;BME280;36550;50.472;19.744;2023-01-29T13:31:38;98601.54;;;1.02;62.14
50302;BME280;36550;50.472;19.744;2023-01-29T13:34:29;98593.97;;;1.05;62.57
50302;BME280;36550;50.472;19.744;2023-01-29T13:37:35;98586.36;;;1.08;62.29
50302;BME280;36550;50.472;19.744;2023-01-29T13:40:25;98590.54;;;1.09;62.22
50302;BME280;36550;50.472;19.744;2023-01-29T13:43:19;98583.50;;;1.11;62.35
50302;BME280;36550;50.472;19.744;2023-01-29T13:46:11;98585.29;;;1.15;62.59
50302;BME280;36550;50.472;19.744;2023-01-29T13:48:56;98571.86;;;1.19;62.54
50302;BME280;36550;50.472;19.744;2023-01-29T13:51:43;98563.40;;;1.20;62.22
50302;BME280;36550;50.472;19.744;2023-01-29T13:54:28;98564.30;;;1.23;62.78
50302;BME280;36550;50.472;19.744;2023-01-29T13:57:33;98560.45;;;1.24;62.64
50302;BME280;36550;50.472;19.744;2023-01-29T14:05:59;98557.48;;;1.06;62.46
50302;BME280;36550;50.472;19.744;2023-01-29T14:08:44;98561.08;;;1.01;62.96
50302;BME280;36550;50.472;19.744;2023-01-29T14:11:33;98565.69;;;0.96;62.94
50302;BME280;36550;50.472;19.744;2023-01-29T14:17:33;98557.30;;;0.86;63.01
50302;BME280;36550;50.472;19.744;2023-01-29T14:20:23;98556.09;;;0.77;62.78
50302;BME280;36550;50.472;19.744;2023-01-29T14:23:21;98556.00;;;0.68;63.00
50302;BME280;36550;50.472;19.744;2023-01-29T14:26:30;98553.37;;;0.64;63.55
50302;BME280;36550;50.472;19.744;2023-01-29T14:29:23;98546.92;;;0.57;63.44
50302;BME280;36550;50.472;19.744;2023-01-29T14:32:17;98548.45;;;0.51;63.78
50302;BME280;36550;50.472;19.744;2023-01-29T14:35:09;98549.01;;;0.44;63.82
50302;BME280;36550;50.472;19.744;2023-01-29T14:38:04;98546.60;;;0.37;64.09
50302;BME280;36550;50.472;19.744;2023-01-29T14:40:49;98539.83;;;0.31;64.35
50302;BME280;36550;50.472;19.744;2023-01-29T14:43:33;98541.20;;;0.28;64.48
50302;BME280;36550;50.472;19.744;2023-01-29T14:52:41;98548.61;;;-0.14;64.16
50302;BME280;36550;50.472;19.744;2023-01-29T14:55:29;98547.33;;;-0.22;64.39
50302;BME280;36550;50.472;19.744;2023-01-29T14:58:21;98549.14;;;-0.28;64.82
50302;BME280;36550;50.472;19.744;2023-01-29T15:01:21;98546.88;;;-0.33;64.90
50302;BME280;36550;50.472;19.744;2023-01-29T15:04:14;98542.45;;;-0.42;64.93
50302;BME280;36550;50.472;19.744;2023-01-29T15:10:17;98544.02;;;-0.55;65.22
50302;BME280;36550;50.472;19.744;2023-01-29T15:13:11;98538.27;;;-0.65;65.43
50302;BME280;36550;50.472;19.744;2023-01-29T15:16:10;98541.42;;;-0.71;65.55
50302;BME280;36550;50.472;19.744;2023-01-29T15:19:10;98538.58;;;-0.73;65.63
50302;BME280;36550;50.472;19.744;2023-01-29T15:22:22;98539.25;;;-0.75;65.95
50302;BME280;36550;50.472;19.744;2023-01-29T15:25:14;98536.39;;;-0.78;66.24
50302;BME280;36550;50.472;19.744;2023-01-29T15:28:02;98534.30;;;-0.79;66.31
50302;BME280;36550;50.472;19.744;2023-01-29T15:30:53;98535.36;;;-0.83;66.62
50302;BME280;36550;50.472;19.744;2023-01-29T15:33:41;98539.71;;;-0.85;66.54
50302;BME280;36550;50.472;19.744;2023-01-29T15:36:29;98544.69;;;-0.90;66.51
50302;BME280;36550;50.472;19.744;2023-01-29T15:39:20;98547.21;;;-0.97;66.60
50302;BME280;36550;50.472;19.744;2023-01-29T15:42:12;98535.98;;;-1.02;66.68
50302;BME280;36550;50.472;19.744;2023-01-29T15:44:59;98520.81;;;-1.07;66.92
50302;BME280;36550;50.472;19.744;2023-01-29T15:47:43;98525.75;;;-1.10;67.03
50302;BME280;36550;50.472;19.744;2023-01-29T15:50:28;98524.63;;;-1.12;67.25
50302;BME280;36550;50.472;19.744;2023-01-29T15:53:19;98517.48;;;-1.17;67.33
50302;BME280;36550;50.472;19.744;2023-01-29T15:56:08;98520.08;;;-1.19;67.60
50302;BME280;36550;50.472;19.744;2023-01-29T15:58:54;98519.02;;;-1.20;67.60
50302;BME280;36550;50.472;19.744;2023-01-29T16:01:40;98515.26;;;-1.20;67.77
50302;BME280;36550;50.472;19.744;2023-01-29T16:04:29;98509.73;;;-1.17;67.83
50302;BME280;36550;50.472;19.744;2023-01-29T16:07:14;98506.11;;;-1.13;67.98
50302;BME280;36550;50.472;19.744;2023-01-29T16:09:58;98509.79;;;-1.08;68.08